Pierpont, Missouri
Current Conditions -  °F | °C
As of 12:54 AM on Friday 19 Dec 2014 (Local Time) from KCOU Reporting Station
Haze Haze  
Wind Chill: 32°   Ceiling: 500
Heat Index: 32°   Visibility: 5mi
Dew Point: 30°   Wind: 3mph
Humidity: 92%   Direction: 80°E
Pressure: 30.26"   Gusts: NA
Location:  38.8994°N, 92.2391°W
Report Text: KCOU 190654Z AUTO 08003KT 5SM BR OVC005 00/M01 A3026 RMK AO2 SLP254 T00001011
Loading
Personal Weather Stations






























Interactive Weather Map New forecast layout! Learn more

10-Day Weather Forecast

Advertisements
Track Severe Weather on mobile